Home > Products > Valid Products > TAF

000
FTUS44 KEPZ 201100
TAFDMN
TAF
KDMN 201139Z 2012/2112 VRB05KT P6SM FEW250
     FM201800 27011KT P6SM SCT080 SCT250=



000
FTUS44 KEPZ 201100
TAFELP
TAF
KELP 201139Z 2012/2112 VRB05KT P6SM SCT250
     FM201800 26010KT P6SM SCT080 SCT250=



000
FTUS44 KEPZ 201100
TAFTCS
TAF
KTCS 201139Z 2012/2112 VRB06KT P6SM SCT070 BKN100
      TEMPO 2012/2014 -SHRA BKN070
     FM201800 21010KT P6SM VCTS SCT070CB SCT120
     FM210200 30006KT P6SM FEW050=



000
FTUS44 KEPZ 200500
TAFDMN
TAF
KDMN 200520Z 2006/2106 28010KT P6SM VCSH SCT050CB BKN080 OVC150
      TEMPO 2006/2010 6SM -SHRA BKN050 BKN100
     FM201000 29010KT P6SM VCTS SCT050CB SCT100 BKN200
     FM201800 27010KT P6SM SCT060 SCT120 SCT250
     FM210500 30006KT P6SM FEW060=



000
FTUS44 KEPZ 200500
TAFTCS
TAF
KTCS 200520Z 2006/2106 32010KT P6SM VCSH SCT040 BKN080 OVC150
      TEMPO 2006/2010 6SM -SHRA BKN040CB OVC100
     FM201000 33010KT P6SM VCTS SCT050CB SCT100 BKN200
     FM201800 20010KT P6SM SCT060 SCT120 SCT250
     FM210500 30006KT P6SM FEW050=



000
FTUS44 KEPZ 200500
TAFELP
TAF
KELP 200520Z 2006/2106 36008KT P6SM VCSH FEW060 BKN100 BKN200
      TEMPO 2006/2010 6SM -SHRA BKN050 OVC100
     FM201000 26010KT P6SM VCTS SCT050CB SCT100 BKN200
     FM201800 27010KT P6SM SCT060 SCT120 SCT250
     FM210400 21006KT P6SM FEW060=



000
FTUS44 KEPZ 200300 AAA
TAFELP
TAF AMD
KELP 200339Z 2004/2024 02010KT P6SM FEW060 BKN100 BKN200
     FM200500 28010KT P6SM VCTS SCT050CB BKN080 OVC150
      TEMPO 2006/2010 VRB30G40KT 6SM TSRAGS BKN050CB OVC100
     FM201000 26010KT P6SM VCTS SCT050CB SCT100 BKN200
     FM201800 27010KT P6SM SCT060 SCT120 SCT250=



000
FTUS44 KEPZ 192300 CCA
TAFELP
TAF COR
KELP 192344Z 2000/2024 02010KT P6SM VCTS BKN050CB BKN100 BKN200
      TEMPO 2000/2002 04015G25KT
     FM200600 28010KT P6SM VCTS SCT050CB BKN080 OVC150
      TEMPO 2006/2010 VRB30G40KT 4SM TSRAGS BKN040CB OVC100
     FM201000 26010KT P6SM VCTS SCT050CB SCT100 BKN200
     FM201800 27010KT P6SM SCT060 SCT120 SCT250=



000
FTUS44 KEPZ 192300 CCA
TAFDMN
TAF COR
KDMN 192343Z 2000/2024 30010KT P6SM VCTS BKN050CB BKN100 BKN200
      TEMPO 2000/2002 32012G22KT
     FM200600 28010KT P6SM VCTS SCT050CB BKN080 OVC150
      TEMPO 2006/2010 VRB30G40KT 4SM TSRAGS BKN040CB OVC100
     FM201000 29010KT P6SM VCTS SCT050CB SCT100 BKN200
     FM201800 27010KT P6SM SCT060 SCT120 SCT250=



000
FTUS44 KEPZ 192300
TAFDMN
TAF
KDMN 192340Z 2000/2024 26010KT 02010KT P6SM VCTS BKN050CB BKN100
      BKN200
     FM200600 28010KT P6SM VCTS SCT050CB BKN080 OVC150
      TEMPO 2006/2010 VRB30G40KT 4SM TSRAGS BKN040CB OVC100
     FM201000 29010KT P6SM VCTS SCT050CB SCT100 BKN200
     FM201800 27010KT P6SM SCT060 SCT120 SCT250=



000
FTUS44 KEPZ 192300
TAFELP
TAF
KELP 192340Z 2000/2024 02010KT P6SM VCTS BKN050CB BKN100 BKN200
     FM200600 28010KT P6SM VCTS SCT050CB BKN080 OVC150
      TEMPO 2006/2010 VRB30G40KT 4SM TSRAGS BKN040CB OVC100
     FM201000 26010KT P6SM VCTS SCT050CB SCT100 BKN200
     FM201800 27010KT P6SM SCT060 SCT120 SCT250=



000
FTUS44 KEPZ 192300
TAFTCS
TAF
KTCS 192340Z 2000/2024 27010KT P6SM VCTS BKN050CB BKN100 BKN200
      TEMPO 2000/2002 VRB25G35KT 6SM -TSRAGS BKN050CB BKN100
     FM200600 32010KT P6SM VCTS SCT050CB BKN080 OVC150
      TEMPO 2006/2010 VRB30G40KT 4SM TSRAGS BKN040CB OVC100
     FM201000 33010KT P6SM VCTS SCT050CB SCT100 BKN200
     FM201800 20010KT P6SM SCT060 SCT120 SCT250=



000
FTUS44 KEPZ 192200 AAC
TAFELP
TAF AMD
KELP 192253Z 1923/2018 07012G22KT 5SM TSRA BKN050CB BKN100 BKN200
      TEMPO 2000/2001 VRB35G48KT 2SM +TSRAGS BKN030CB OVC080
     FM200200 28010G18KT P6SM VCTS SCT050CB BKN080 OVC150
      TEMPO 2003/2007 VRB30G40KT 6SM TSRAGS BKN040CB OVC100
     FM201000 26010KT P6SM VCTS SCT050CB SCT100 BKN200=



000
FTUS44 KEPZ 192100 AAB
TAFELP
TAF AMD
KELP 192114Z 1921/2018 01012G22KT P6SM VCTS SCT060CB BKN100 BKN200
      TEMPO 1921/2001 VRB35G48KT 5SM TSRAGS BKN030CB OVC080
     FM200200 28010G18KT P6SM VCTS SCT050CB BKN080 OVC150
      TEMPO 2003/2007 VRB30G40KT 6SM TSRAGS BKN040CB OVC100
     FM201000 26010KT P6SM VCTS SCT050CB SCT100 BKN200=



000
FTUS44 KEPZ 192000 AAA
TAFDMN
TAF AMD
KDMN 192014Z 1920/2018 26010KT P6SM VCTS SCT040CB BKN120 BKN250
      TEMPO 1920/1924 VRB30G42KT 5SM TSRAGS BKN030CB OVC080
     FM200200 31010G18KT P6SM VCTS SCT050CB BKN080 OVC150
      TEMPO 2003/2007 VRB30G40KT 6SM TSRAGS BKN040CB OVC100
     FM201000 29010KT P6SM VCTS SCT050CB SCT100 BKN250=



000
FTUS44 KEPZ 191900 AAA
TAFELP
TAF AMD
KELP 191904Z 1919/2018 01012G20KT P6SM VCTS SCT040CB BKN120 BKN250
     FM192000 24010KT P6SM VCTS SCT060CB BKN100 BKN250
      TEMPO 1922/2002 VRB30G42KT 5SM TSRAGS BKN030CB OVC080
     FM200200 28010G18KT P6SM VCTS SCT050CB BKN080 OVC150
      TEMPO 2003/2007 VRB30G40KT 6SM TSRAGS BKN040CB OVC100
     FM201000 26010KT P6SM VCTS SCT050CB SCT100 BKN200=



000
FTUS44 KEPZ 191700 RRA
TAFELP
TAF
KELP 191748Z 1918/2018 30010KT P6SM VCTS SCT040CB BKN120 BKN250
     FM192000 24010KT P6SM VCTS SCT060CB BKN100 BKN250
      TEMPO 1922/2002 VRB30G42KT 5SM TSRAGS BKN030CB OVC080
     FM200200 28010G18KT P6SM VCTS SCT050CB BKN080 OVC150
      TEMPO 2003/2007 VRB30G40KT 6SM TSRAGS BKN040CB OVC100
     FM201000 26010KT P6SM VCTS SCT050CB SCT100 BKN200=



000
FTUS44 KEPZ 191700 RRA
TAFTCS
TAF
KTCS 191748Z 1918/2018 29010KT P6SM VCTS SCT060CB BKN120 BKN250
     FM192000 24010KT P6SM VCTS SCT060CB BKN100 BKN250
      TEMPO 1922/2002 VRB30G42KT 5SM TSRAGS BKN030CB OVC080
     FM200200 30010G18KT P6SM VCTS SCT050CB BKN080 OVC150
      TEMPO 2003/2007 VRB30G40KT 6SM TSRAGS BKN040CB OVC100
     FM201000 32010KT P6SM VCTS SCT050CB SCT100 BKN200=



000
FTUS44 KEPZ 191700 RRA
TAFDMN
TAF
KDMN 191748Z 1918/2018 26010KT P6SM VCTS SCT040CB BKN120 BKN250
      TEMPO 1921/2001 VRB30G42KT 5SM TSRAGS BKN030CB OVC080
     FM200200 31010G18KT P6SM VCTS SCT050CB BKN080 OVC150
      TEMPO 2003/2007 VRB30G40KT 6SM TSRAGS BKN040CB OVC100
     FM201000 29010KT P6SM VCTS SCT050CB SCT100 BKN200=



000
FTUS44 KEPZ 191300 AAA
TAFDMN
TAF AMD
KDMN 191329Z 1913/2012 32010G20KT P6SM SCT050CB BKN100
      TEMPO 1914/1918 -TSRA SCT040CB BKN050
     FM191800 24010KT P6SM SCT050CB BKN100 OVC200
      TEMPO 1918/1922 VRB25G35KT 5SM TSRA SCT030 BKN050CB
     FM192200 28010G18KT P6SM VCTS SCT050CB BKN080 OVC150
      TEMPO 2002/2006 VRB25G35KT 6SM -TSRA BKN050CB OVC100=



000
FTUS44 KEPZ 191100 RRA
TAFDMN
TAF
KDMN 191142Z 1912/2012 06010KT P6SM SCT050 BKN100
      TEMPO 1914/1918 -SHRA SCT025 BKN050
     FM191800 24010KT P6SM SCT050CB BKN100 OVC200
      TEMPO 1918/1922 VRB25G35KT 5SM TSRA SCT030 BKN050CB
     FM192200 28010G18KT P6SM VCTS SCT050CB BKN080 OVC150
      TEMPO 2002/2006 VRB25G35KT 6SM -TSRA BKN050CB OVC100=



000
FTUS44 KEPZ 191100 RRA
TAFTCS
TAF
KTCS 191142Z 1912/2012 32008KT P6SM SCT050 BKN100
      TEMPO 1912/1916 -SHRA SCT025 BKN040
     FM191800 23010KT P6SM SCT050 BKN100
      TEMPO 1918/1922 VRB25G35KT 5SM TSRA SCT020 OVC050CB
     FM192200 28010G18KT P6SM SCT050CB BKN080
      TEMPO 1922/2002 6SM -TSRA BKN050CB OVC100=



000
FTUS44 KEPZ 191100 RRA
TAFELP
TAF
KELP 191142Z 1912/2012 12009KT P6SM VCSH SCT070 BKN150
     FM191600 24010KT P6SM SCT050CB BKN100
      TEMPO 1918/1922 VRB25G35KT 5SM TSRA SCT025 BKN050CB
     FM192200 28010G18KT P6SM VCSH SCT050CB BKN080 OVC150
      TEMPO 1922/2002 VRB25G35KT 6SM -TSRA BKN050CB OVC100=



000
FTUS44 KEPZ 190500
TAFTCS
TAF
KTCS 190539Z 1906/2006 29007KT P6SM VCSH SCT060 BKN100 OVC200
     FM191100 30010KT P6SM VCTS SCT050CB BKN100 OVC250
      TEMPO 1911/1915 VRB18G28KT 6SM -TSRA BKN040CB OVC080
     FM192000 23010KT P6SM VCTS SCT050CB BKN100 OVC200
     FM200200 28010G18KT P6SM VCTS SCT050CB BKN080 OVC150
      TEMPO 2002/2006 VRB25G35KT 6SM -TSRA BKN050CB OVC100=



000
FTUS44 KEPZ 190500
TAFDMN
TAF
KDMN 190539Z 1906/2006 02007KT P6SM VCSH SCT060 BKN100 OVC200
     FM191100 06010KT P6SM VCTS SCT050CB BKN100 OVC250
      TEMPO 1911/1915 VRB18G28KT 6SM -TSRA BKN040CB OVC080
     FM192000 24010KT P6SM VCTS SCT050CB BKN100 OVC200
     FM200200 28010G18KT P6SM VCTS SCT050CB BKN080 OVC150
      TEMPO 2002/2006 VRB25G35KT 6SM -TSRA BKN050CB OVC100=



000
FTUS44 KEPZ 190500
TAFELP
TAF
KELP 190539Z 1906/2006 11009KT P6SM VCSH SCT060 BKN100 OVC200
     FM191100 15010KT P6SM VCTS SCT050CB BKN100 OVC250
      TEMPO 1911/1915 VRB18G28KT 6SM -TSRA BKN040CB OVC080
     FM192000 22010KT P6SM VCTS SCT050CB BKN100 OVC200
     FM200200 28010G18KT P6SM VCTS SCT050CB BKN080 OVC150
      TEMPO 2002/2006 VRB25G35KT 6SM -TSRA BKN050CB OVC100=



000
FTUS44 KEPZ 190200 AAB
TAFELP
TAF AMD
KELP 190244Z 1903/1924 15012G22KT P6SM VCTS SCT060CB BKN100 OVC200
      TEMPO 1903/1907 VRB25G35KT 6SM -TSRA BKN050CB OVC080
     FM191200 17010KT P6SM VCTS SCT050CB BKN100 OVC250 PROB30
      1912/1918 VRB18G28KT 6SM -TSRA BKN040CB OVC080
     FM192000 23010KT P6SM VCTS SCT040CB BKN080 OVC120=



000
FTUS44 KEPZ 190000 AAA
TAFELP
TAF AMD
KELP 190004Z 1900/1924 15010G17KT P6SM VCSH SCT070 BKN120 OVC250
      TEMPO 1900/1904 17025G37KT 6SM -TSRA BKN060CB BKN100 OVC200
     FM190600 06006KT P6SM VCSH SCT050 BKN080 OVC200
     FM191200 17010KT P6SM VCTS SCT050CB BKN100 OVC250 PROB30
      1912/1918 VRB18G28KT 6SM -TSRA BKN040CB OVC080
     FM192000 23010KT P6SM VCTS SCT040CB BKN080 OVC120=



000
FTUS44 KEPZ 182300 CCA
TAFDMN
TAF COR
KDMN 182350Z 1900/1924 27012G22KT P6SM VCSH SCT070 BKN120 OVC250
      TEMPO 1900/1904 27017G27KT 6SM -TSRA BKN060CB BKN100 OVC200
     FM190600 06006KT P6SM VCSH SCT050 BKN080 OVC200
     FM191200 17010KT P6SM VCTS SCT050CB BKN100 OVC250 PROB30
      1912/1918 VRB18G28KT 6SM -TSRA BKN040CB OVC080
     FM192000 25010G20KT P6SM VCTS SCT040CB BKN080 OVC120=



000
FTUS44 KEPZ 182300 RRA
TAFDMN
TAF
KDMN 182344Z 1900/1924 27012G12KT P6SM VCSH SCT070 BKN120 OVC250
      TEMPO 1900/1904 27017G27KT 6SM -TSRA BKN060CB BKN100 OVC200
     FM190600 06006KT P6SM VCSH SCT050 BKN080 OVC200
     FM191200 17010KT P6SM VCTS SCT050CB BKN100 OVC250 PROB30
      1912/1918 VRB18G28KT 6SM -TSRA BKN040CB OVC080
     FM192000 25010G20KT P6SM VCTS SCT040CB BKN080 OVC120=



000
FTUS44 KEPZ 182300 RRA
TAFTCS
TAF
KTCS 182344Z 1900/1924 19012G22KT P6SM VCSH SCT070 BKN120 OVC250
      TEMPO 1900/1904 17015G25KT 6SM -TSRA BKN060CB BKN100 OVC200
     FM190600 30006KT P6SM VCSH SCT050 BKN080 OVC200
     FM191200 17010KT P6SM VCTS SCT050CB BKN100 OVC250 PROB30
      1912/1918 VRB18G28KT 6SM -TSRA BKN040CB OVC080
     FM192000 24010KT P6SM VCTS SCT040CB BKN080 OVC120=



000
FTUS44 KEPZ 182300 RRA
TAFELP
TAF
KELP 182344Z 1900/1924 15010G17KT P6SM VCSH SCT070 BKN120 OVC250
      TEMPO 1900/1904 17015G25KT 6SM -TSRA BKN060CB BKN100 OVC200
     FM190600 06006KT P6SM VCSH SCT050 BKN080 OVC200
     FM191200 17010KT P6SM VCTS SCT050CB BKN100 OVC250 PROB30
      1912/1918 VRB18G28KT 6SM -TSRA BKN040CB OVC080
     FM192000 23010KT P6SM VCTS SCT040CB BKN080 OVC120=



000
FTUS44 KEPZ 181700
TAFTCS
TAF
KTCS 181740Z 1818/1918 18010KT P6SM FEW120 OVC250
     FM182000 22017G27KT P6SM SCT100 OVC250
     FM190100 14010KT P6SM VCTS SCT070CB BKN100 OVC200
      TEMPO 1901/1905 VRB27G40KT 6SM -TSRA BKN060CB OVC100
     FM190600 27005KT P6SM VCSH SCT050 BKN080 OVC200=



000
FTUS44 KEPZ 181700
TAFDMN
TAF
KDMN 181740Z 1818/1918 11012G20KT P6SM OVC250
     FM182100 22014G22KT P6SM VCSH SCT080 BKN120 OVC200
     FM190000 20011KT P6SM VCTS SCT070CB BKN100 OVC200
      TEMPO 1901/1905 VRB27G40KT 6SM -TSRA BKN060CB OVC100
     FM190600 33006KT P6SM SCT060 BKN120=



000
FTUS44 KEPZ 181700
TAFELP
TAF
KELP 181740Z 1818/1918 11011KT P6SM FEW120 OVC250
     FM182100 16012G22KT P6SM BKN100 OVC200
     FM190100 23011KT P6SM VCTS SCT080CB BKN100 OVC200
      TEMPO 1902/1906 VRB27G40KT 6SM -TSRA BKN050CB OVC100
     FM190600 06006KT P6SM VCSH SCT050 BKN080=



000
FTUS44 KEPZ 181600 AAA
TAFDMN
TAF AMD
KDMN 181640Z 1817/1912 12012G20KT P6SM OVC250
     FM182100 22014G22KT P6SM VCSH SCT080 BKN120 OVC200
     FM190000 20011KT P6SM VCTS SCT070CB BKN100 OVC200
      TEMPO 1902/1906 VRB27G40KT 6SM -TSRA BKN060CB OVC100
     FM190600 33006KT P6SM SCT060 BKN120=



000
FTUS44 KEPZ 181100
TAFDMN
TAF
KDMN 181120Z 1812/1912 09009KT P6SM BKN250
     FM181500 12008KT P6SM BKN250
     FM182100 22013G20KT P6SM SCT080 BKN120 OVC200
     FM190000 20011KT P6SM VCTS SCT070CB BKN100 OVC200
      TEMPO 1902/1906 VRB27G40KT 6SM -TSRA BKN060CB OVC100
     FM190600 33006KT P6SM SCT060 BKN120=



000
FTUS44 KEPZ 181100
TAFELP
TAF
KELP 181120Z 1812/1912 11011KT P6SM BKN250
     FM181900 20012G22KT P6SM SCT120 OVC200
     FM190200 23011KT P6SM VCTS BKN080CB BKN100 OVC200
      TEMPO 1902/1906 VRB27G40KT 6SM -TSRA BKN050CB OVC100
     FM190600 06006KT P6SM VCSH SCT050 BKN080=



000
FTUS44 KEPZ 181100
TAFTCS
TAF
KTCS 181120Z 1812/1912 VRB05KT P6SM BKN250
     FM181500 14008KT P6SM BKN250
     FM181900 19017G27KT P6SM SCT120 OVC200
     FM190000 23011KT P6SM VCTS SCT070CB BKN100 OVC200
      TEMPO 1900/1904 VRB27G40KT 6SM -TSRA BKN060CB OVC100
     FM190600 27005KT P6SM VCSH SCT050 BKN080 OVC200=



000
FTUS44 KEPZ 180500
TAFDMN
TAF
KDMN 180520Z 1806/1906 07009KT P6SM SCT250
     FM181500 12008KT P6SM BKN250
     FM181900 21012G22KT P6SM BKN120 OVC200
     FM190000 19011KT P6SM VCTS SCT070CB BKN100 OVC200
      TEMPO 1902/1906 VRB27G40KT 6SM -TSRA BKN060CB OVC100=



000
FTUS44 KEPZ 180500
TAFELP
TAF
KELP 180520Z 1806/1906 08011KT P6SM SCT250
     FM181500 14008KT P6SM BKN250
     FM181900 22012G22KT P6SM BKN120 OVC200
     FM190300 19011KT P6SM VCTS SCT070CB BKN100 OVC200
      TEMPO 1903/1906 VRB27G40KT 6SM -TSRA BKN060CB OVC100=



000
FTUS44 KEPZ 180500
TAFTCS
TAF
KTCS 180520Z 1806/1906 25009KT P6SM SCT250
     FM181500 14008KT P6SM BKN250
     FM181900 19012G22KT P6SM BKN120 OVC200
     FM190000 21011KT P6SM VCTS SCT070CB BKN100 OVC200
      TEMPO 1902/1906 VRB27G40KT 6SM -TSRA BKN060CB OVC100=



000
FTUS44 KEPZ 172300 RRA
TAFTCS
TAF
KTCS 172346Z 1800/1824 17008KT P6SM SKC
     FM180600 25008KT P6SM SCT250
     FM181800 20015G25KT P6SM VCSH BKN120 OVC200=



000
FTUS44 KEPZ 172300 RRA
TAFDMN
TAF
KDMN 172346Z 1800/1824 15009KT P6SM SKC
      TEMPO 1800/1802 15012G22KT
     FM180300 06008KT P6SM SCT250
     FM181500 13011KT P6SM BKN250
     FM182000 20012G22KT P6SM BKN120 OVC200=



000
FTUS44 KEPZ 172300 RRA
TAFELP
TAF
KELP 172346Z 1800/1824 08008KT P6SM SCT250
     FM181500 12008KT P6SM BKN250
     FM182100 20012G22KT P6SM BKN120 OVC200=



000
FTUS44 KEPZ 171700
TAFELP
TAF
KELP 171732Z 1718/1818 04009KT P6SM SKC
     FM172000 12010KT P6SM SKC
     FM180700 08008KT P6SM SKC=



000
FTUS44 KEPZ 171700
TAFDMN
TAF
KDMN 171732Z 1718/1818 04010G18KT P6SM SKC
     FM172100 16009KT P6SM SKC
     FM180500 07007KT P6SM SKC=



000
FTUS44 KEPZ 171700
TAFTCS
TAF
KTCS 171732Z 1718/1818 04010KT P6SM SKC
     FM172000 15012KT P6SM SKC
     FM180500 25005KT P6SM SKC=



    US Dept of Commerce
    National Oceanic and Atmospheric Administration
    National Weather Service
    1325 East West Highway
    Silver Spring, MD 20910
    Page Author: NWS Internet Services Team
Disclaimer
Information Quality
Credits
Glossary
Privacy Policy
Freedom of Information Act (FOIA)
About Us
Career Opportunities